sensor_id;sensor_type;location;lat;lon;timestamp;P1;durP1;ratioP1;P2;durP2;ratioP2
46284;SDS011;32018;59.182;18.148;2022-12-20T00:00:43;14.70;;;13.50;;
46284;SDS011;32018;59.182;18.148;2022-12-20T00:03:08;13.70;;;12.68;;
46284;SDS011;32018;59.182;18.148;2022-12-20T00:05:37;13.40;;;12.40;;
46284;SDS011;32018;59.182;18.148;2022-12-20T00:08:02;12.85;;;11.75;;
46284;SDS011;32018;59.182;18.148;2022-12-20T00:10:28;12.07;;;11.10;;
46284;SDS011;32018;59.182;18.148;2022-12-20T00:12:53;13.50;;;12.35;;
46284;SDS011;32018;59.182;18.148;2022-12-20T00:15:18;13.63;;;12.43;;
46284;SDS011;32018;59.182;18.148;2022-12-20T00:17:44;12.93;;;11.82;;
46284;SDS011;32018;59.182;18.148;2022-12-20T00:20:09;13.48;;;12.25;;
46284;SDS011;32018;59.182;18.148;2022-12-20T00:22:35;12.05;;;11.15;;
46284;SDS011;32018;59.182;18.148;2022-12-20T00:25:01;12.73;;;11.77;;
46284;SDS011;32018;59.182;18.148;2022-12-20T00:27:26;13.43;;;12.05;;
46284;SDS011;32018;59.182;18.148;2022-12-20T00:29:52;12.85;;;11.85;;
46284;SDS011;32018;59.182;18.148;2022-12-20T00:32:17;13.50;;;12.50;;
46284;SDS011;32018;59.182;18.148;2022-12-20T00:34:42;14.50;;;13.10;;
46284;SDS011;32018;59.182;18.148;2022-12-20T00:37:08;15.20;;;13.90;;
46284;SDS011;32018;59.182;18.148;2022-12-20T00:39:33;14.52;;;13.20;;
46284;SDS011;32018;59.182;18.148;2022-12-20T00:41:58;13.93;;;12.63;;
46284;SDS011;32018;59.182;18.148;2022-12-20T00:44:24;14.63;;;13.07;;
46284;SDS011;32018;59.182;18.148;2022-12-20T00:46:49;13.90;;;12.70;;
46284;SDS011;32018;59.182;18.148;2022-12-20T00:49:14;15.00;;;13.45;;
46284;SDS011;32018;59.182;18.148;2022-12-20T00:51:40;14.90;;;13.70;;
46284;SDS011;32018;59.182;18.148;2022-12-20T00:54:05;15.18;;;14.07;;
46284;SDS011;32018;59.182;18.148;2022-12-20T00:56:31;16.85;;;15.35;;
46284;SDS011;32018;59.182;18.148;2022-12-20T00:58:57;12.75;;;11.88;;
46284;SDS011;32018;59.182;18.148;2022-12-20T01:01:23;20.02;;;15.93;;
46284;SDS011;32018;59.182;18.148;2022-12-20T01:03:50;19.33;;;16.10;;
46284;SDS011;32018;59.182;18.148;2022-12-20T01:06:15;15.85;;;14.45;;
46284;SDS011;32018;59.182;18.148;2022-12-20T01:08:40;18.58;;;16.77;;
46284;SDS011;32018;59.182;18.148;2022-12-20T01:11:07;18.63;;;16.90;;
46284;SDS011;32018;59.182;18.148;2022-12-20T01:13:33;22.08;;;18.20;;
46284;SDS011;32018;59.182;18.148;2022-12-20T01:16:09;20.40;;;17.83;;
46284;SDS011;32018;59.182;18.148;2022-12-20T01:18:35;22.88;;;18.08;;
46284;SDS011;32018;59.182;18.148;2022-12-20T01:21:00;21.05;;;16.80;;
46284;SDS011;32018;59.182;18.148;2022-12-20T01:23:26;19.20;;;17.08;;
46284;SDS011;32018;59.182;18.148;2022-12-20T01:25:51;18.50;;;16.80;;
46284;SDS011;32018;59.182;18.148;2022-12-20T01:28:17;19.30;;;17.70;;
46284;SDS011;32018;59.182;18.148;2022-12-20T01:30:42;19.13;;;16.17;;
46284;SDS011;32018;59.182;18.148;2022-12-20T01:33:07;18.92;;;17.15;;
46284;SDS011;32018;59.182;18.148;2022-12-20T01:35:33;22.55;;;18.23;;
46284;SDS011;32018;59.182;18.148;2022-12-20T01:37:58;20.65;;;18.73;;
46284;SDS011;32018;59.182;18.148;2022-12-20T01:40:23;20.17;;;18.17;;
46284;SDS011;32018;59.182;18.148;2022-12-20T01:42:48;20.10;;;18.13;;
46284;SDS011;32018;59.182;18.148;2022-12-20T01:45:18;13.65;;;12.65;;
46284;SDS011;32018;59.182;18.148;2022-12-20T01:47:45;15.80;;;14.60;;
46284;SDS011;32018;59.182;18.148;2022-12-20T01:50:11;15.70;;;14.48;;
46284;SDS011;32018;59.182;18.148;2022-12-20T01:52:38;15.75;;;14.45;;
46284;SDS011;32018;59.182;18.148;2022-12-20T01:55:15;19.27;;;17.73;;
46284;SDS011;32018;59.182;18.148;2022-12-20T01:57:49;19.38;;;17.98;;
46284;SDS011;32018;59.182;18.148;2022-12-20T02:00:15;18.05;;;16.50;;
46284;SDS011;32018;59.182;18.148;2022-12-20T02:02:41;18.63;;;17.13;;
46284;SDS011;32018;59.182;18.148;2022-12-20T02:05:07;18.70;;;17.30;;
46284;SDS011;32018;59.182;18.148;2022-12-20T02:07:33;18.58;;;16.88;;
46284;SDS011;32018;59.182;18.148;2022-12-20T02:10:00;17.67;;;16.27;;
46284;SDS011;32018;59.182;18.148;2022-12-20T02:12:28;19.08;;;17.40;;
46284;SDS011;32018;59.182;18.148;2022-12-20T02:15:01;16.27;;;14.95;;
46284;SDS011;32018;59.182;18.148;2022-12-20T02:19:58;16.30;;;14.75;;
46284;SDS011;32018;59.182;18.148;2022-12-20T02:28:03;16.40;;;15.10;;
46284;SDS011;32018;59.182;18.148;2022-12-20T02:30:27;16.45;;;15.18;;
46284;SDS011;32018;59.182;18.148;2022-12-20T02:32:58;16.30;;;15.00;;
46284;SDS011;32018;59.182;18.148;2022-12-20T02:35:25;17.35;;;15.77;;
46284;SDS011;32018;59.182;18.148;2022-12-20T02:37:52;18.20;;;16.67;;
46284;SDS011;32018;59.182;18.148;2022-12-20T02:40:22;17.15;;;15.82;;
46284;SDS011;32018;59.182;18.148;2022-12-20T02:45:14;17.60;;;15.57;;
46284;SDS011;32018;59.182;18.148;2022-12-20T02:50:08;17.38;;;16.02;;
46284;SDS011;32018;59.182;18.148;2022-12-20T02:52:34;17.77;;;16.55;;
46284;SDS011;32018;59.182;18.148;2022-12-20T02:55:00;17.30;;;15.88;;
46284;SDS011;32018;59.182;18.148;2022-12-20T03:00:05;17.55;;;16.20;;
46284;SDS011;32018;59.182;18.148;2022-12-20T03:12:20;16.83;;;15.52;;
46284;SDS011;32018;59.182;18.148;2022-12-20T03:14:46;18.80;;;17.13;;
46284;SDS011;32018;59.182;18.148;2022-12-20T03:17:11;18.08;;;16.52;;
46284;SDS011;32018;59.182;18.148;2022-12-20T03:19:36;16.45;;;15.00;;
46284;SDS011;32018;59.182;18.148;2022-12-20T03:22:01;19.30;;;17.30;;
46284;SDS011;32018;59.182;18.148;2022-12-20T03:24:27;19.23;;;17.50;;
46284;SDS011;32018;59.182;18.148;2022-12-20T03:26:52;17.88;;;16.08;;
46284;SDS011;32018;59.182;18.148;2022-12-20T03:29:17;18.88;;;17.20;;
46284;SDS011;32018;59.182;18.148;2022-12-20T03:31:43;20.17;;;18.08;;
46284;SDS011;32018;59.182;18.148;2022-12-20T03:34:08;20.35;;;18.45;;
46284;SDS011;32018;59.182;18.148;2022-12-20T03:36:33;20.00;;;18.33;;
46284;SDS011;32018;59.182;18.148;2022-12-20T03:38:59;19.42;;;17.92;;
46284;SDS011;32018;59.182;18.148;2022-12-20T03:41:24;20.10;;;18.23;;
46284;SDS011;32018;59.182;18.148;2022-12-20T03:43:50;18.08;;;16.58;;
46284;SDS011;32018;59.182;18.148;2022-12-20T03:46:15;19.02;;;17.45;;
46284;SDS011;32018;59.182;18.148;2022-12-20T03:48:41;20.38;;;18.42;;
46284;SDS011;32018;59.182;18.148;2022-12-20T03:51:06;17.67;;;16.08;;
46284;SDS011;32018;59.182;18.148;2022-12-20T03:53:31;19.38;;;17.63;;
46284;SDS011;32018;59.182;18.148;2022-12-20T03:55:57;18.17;;;16.65;;
46284;SDS011;32018;59.182;18.148;2022-12-20T03:58:22;18.02;;;16.52;;
46284;SDS011;32018;59.182;18.148;2022-12-20T04:00:47;18.48;;;16.73;;
46284;SDS011;32018;59.182;18.148;2022-12-20T04:03:13;19.23;;;17.58;;
46284;SDS011;32018;59.182;18.148;2022-12-20T04:05:38;18.92;;;17.23;;
46284;SDS011;32018;59.182;18.148;2022-12-20T04:08:03;20.05;;;18.20;;
46284;SDS011;32018;59.182;18.148;2022-12-20T04:10:29;19.15;;;17.30;;
46284;SDS011;32018;59.182;18.148;2022-12-20T04:12:54;19.27;;;17.80;;
46284;SDS011;32018;59.182;18.148;2022-12-20T04:15:19;19.45;;;17.63;;
46284;SDS011;32018;59.182;18.148;2022-12-20T04:17:45;18.75;;;16.85;;
46284;SDS011;32018;59.182;18.148;2022-12-20T04:20:15;19.40;;;17.50;;
46284;SDS011;32018;59.182;18.148;2022-12-20T04:22:47;18.90;;;16.65;;
46284;SDS011;32018;59.182;18.148;2022-12-20T04:25:13;17.65;;;16.15;;
46284;SDS011;32018;59.182;18.148;2022-12-20T04:27:38;19.17;;;17.67;;
46284;SDS011;32018;59.182;18.148;2022-12-20T04:30:04;18.30;;;16.50;;
46284;SDS011;32018;59.182;18.148;2022-12-20T04:32:29;19.08;;;17.38;;
46284;SDS011;32018;59.182;18.148;2022-12-20T04:34:54;19.25;;;17.23;;
46284;SDS011;32018;59.182;18.148;2022-12-20T04:37:20;17.25;;;15.75;;
46284;SDS011;32018;59.182;18.148;2022-12-20T04:39:45;17.75;;;16.05;;
46284;SDS011;32018;59.182;18.148;2022-12-20T04:42:10;16.27;;;14.95;;
46284;SDS011;32018;59.182;18.148;2022-12-20T04:44:36;17.13;;;15.60;;
46284;SDS011;32018;59.182;18.148;2022-12-20T04:47:01;15.80;;;14.52;;
46284;SDS011;32018;59.182;18.148;2022-12-20T04:49:27;12.98;;;11.98;;
46284;SDS011;32018;59.182;18.148;2022-12-20T04:51:52;17.77;;;16.35;;
46284;SDS011;32018;59.182;18.148;2022-12-20T04:54:17;14.20;;;13.07;;
46284;SDS011;32018;59.182;18.148;2022-12-20T04:56:43;16.17;;;14.77;;
46284;SDS011;32018;59.182;18.148;2022-12-20T04:59:08;15.48;;;14.20;;
46284;SDS011;32018;59.182;18.148;2022-12-20T05:01:35;14.55;;;13.27;;
46284;SDS011;32018;59.182;18.148;2022-12-20T05:04:00;14.25;;;13.32;;
46284;SDS011;32018;59.182;18.148;2022-12-20T05:06:26;15.02;;;13.82;;
46284;SDS011;32018;59.182;18.148;2022-12-20T05:08:51;12.98;;;11.98;;
46284;SDS011;32018;59.182;18.148;2022-12-20T05:11:18;13.70;;;12.60;;
46284;SDS011;32018;59.182;18.148;2022-12-20T05:13:44;13.00;;;11.90;;
46284;SDS011;32018;59.182;18.148;2022-12-20T05:16:09;13.25;;;12.15;;
46284;SDS011;32018;59.182;18.148;2022-12-20T05:18:34;13.15;;;12.05;;
46284;SDS011;32018;59.182;18.148;2022-12-20T05:21:00;12.55;;;11.63;;
46284;SDS011;32018;59.182;18.148;2022-12-20T05:23:44;13.55;;;12.52;;
46284;SDS011;32018;59.182;18.148;2022-12-20T05:26:29;12.85;;;11.85;;
46284;SDS011;32018;59.182;18.148;2022-12-20T05:28:55;12.93;;;11.77;;
46284;SDS011;32018;59.182;18.148;2022-12-20T05:31:20;11.90;;;10.80;;
46284;SDS011;32018;59.182;18.148;2022-12-20T05:33:46;12.02;;;11.13;;
46284;SDS011;32018;59.182;18.148;2022-12-20T05:36:11;12.05;;;10.95;;
46284;SDS011;32018;59.182;18.148;2022-12-20T05:38:36;11.55;;;10.73;;
46284;SDS011;32018;59.182;18.148;2022-12-20T05:41:02;11.70;;;10.77;;
46284;SDS011;32018;59.182;18.148;2022-12-20T05:43:28;10.70;;;9.88;;
46284;SDS011;32018;59.182;18.148;2022-12-20T05:45:54;9.57;;;8.88;;
46284;SDS011;32018;59.182;18.148;2022-12-20T05:48:19;9.98;;;9.18;;
46284;SDS011;32018;59.182;18.148;2022-12-20T05:50:45;9.77;;;8.98;;
46284;SDS011;32018;59.182;18.148;2022-12-20T05:53:14;10.02;;;9.27;;
46284;SDS011;32018;59.182;18.148;2022-12-20T05:55:43;9.38;;;8.65;;
46284;SDS011;32018;59.182;18.148;2022-12-20T05:58:09;10.60;;;9.88;;
46284;SDS011;32018;59.182;18.148;2022-12-20T06:00:37;8.63;;;8.00;;
46284;SDS011;32018;59.182;18.148;2022-12-20T06:03:02;9.43;;;8.68;;
46284;SDS011;32018;59.182;18.148;2022-12-20T06:05:27;9.18;;;8.40;;
46284;SDS011;32018;59.182;18.148;2022-12-20T06:07:53;9.98;;;9.27;;
46284;SDS011;32018;59.182;18.148;2022-12-20T06:10:18;9.48;;;8.77;;
46284;SDS011;32018;59.182;18.148;2022-12-20T06:12:43;9.27;;;8.55;;
46284;SDS011;32018;59.182;18.148;2022-12-20T06:15:09;9.57;;;8.77;;
46284;SDS011;32018;59.182;18.148;2022-12-20T06:17:34;9.32;;;8.50;;
46284;SDS011;32018;59.182;18.148;2022-12-20T06:20:00;8.25;;;7.47;;
46284;SDS011;32018;59.182;18.148;2022-12-20T06:22:25;8.02;;;7.43;;
46284;SDS011;32018;59.182;18.148;2022-12-20T06:24:50;7.95;;;7.43;;
46284;SDS011;32018;59.182;18.148;2022-12-20T06:27:16;8.32;;;7.72;;
46284;SDS011;32018;59.182;18.148;2022-12-20T06:29:42;8.10;;;7.50;;
46284;SDS011;32018;59.182;18.148;2022-12-20T06:32:15;8.20;;;7.60;;
46284;SDS011;32018;59.182;18.148;2022-12-20T06:34:41;7.75;;;7.15;;
46284;SDS011;32018;59.182;18.148;2022-12-20T06:37:06;7.97;;;7.38;;
46284;SDS011;32018;59.182;18.148;2022-12-20T06:39:32;7.05;;;6.55;;
46284;SDS011;32018;59.182;18.148;2022-12-20T06:41:57;7.82;;;7.32;;
46284;SDS011;32018;59.182;18.148;2022-12-20T06:44:22;9.55;;;8.85;;
46284;SDS011;32018;59.182;18.148;2022-12-20T06:46:48;7.25;;;6.75;;
46284;SDS011;32018;59.182;18.148;2022-12-20T06:49:13;7.93;;;7.32;;
46284;SDS011;32018;59.182;18.148;2022-12-20T06:51:38;8.13;;;7.55;;
46284;SDS011;32018;59.182;18.148;2022-12-20T06:54:04;8.00;;;7.40;;
46284;SDS011;32018;59.182;18.148;2022-12-20T06:56:29;8.45;;;7.75;;
46284;SDS011;32018;59.182;18.148;2022-12-20T06:58:54;7.53;;;7.03;;
46284;SDS011;32018;59.182;18.148;2022-12-20T07:01:20;8.00;;;7.40;;
46284;SDS011;32018;59.182;18.148;2022-12-20T07:03:45;7.50;;;7.00;;
46284;SDS011;32018;59.182;18.148;2022-12-20T07:06:10;8.50;;;7.80;;
46284;SDS011;32018;59.182;18.148;2022-12-20T07:08:36;7.65;;;7.03;;
46284;SDS011;32018;59.182;18.148;2022-12-20T07:11:02;7.63;;;7.07;;
46284;SDS011;32018;59.182;18.148;2022-12-20T07:13:28;7.25;;;6.75;;
46284;SDS011;32018;59.182;18.148;2022-12-20T07:15:57;7.22;;;6.72;;
46284;SDS011;32018;59.182;18.148;2022-12-20T07:18:23;8.13;;;7.53;;
46284;SDS011;32018;59.182;18.148;2022-12-20T07:20:48;8.00;;;7.38;;
46284;SDS011;32018;59.182;18.148;2022-12-20T07:23:13;7.95;;;7.35;;
46284;SDS011;32018;59.182;18.148;2022-12-20T07:25:39;6.88;;;6.30;;
46284;SDS011;32018;59.182;18.148;2022-12-20T07:28:04;7.80;;;7.30;;
46284;SDS011;32018;59.182;18.148;2022-12-20T07:30:29;7.15;;;6.65;;
46284;SDS011;32018;59.182;18.148;2022-12-20T07:32:55;7.43;;;6.82;;
46284;SDS011;32018;59.182;18.148;2022-12-20T07:35:20;6.45;;;5.95;;
46284;SDS011;32018;59.182;18.148;2022-12-20T07:37:45;6.82;;;6.32;;
46284;SDS011;32018;59.182;18.148;2022-12-20T07:40:11;6.75;;;6.15;;
46284;SDS011;32018;59.182;18.148;2022-12-20T07:42:36;6.15;;;5.70;;
46284;SDS011;32018;59.182;18.148;2022-12-20T07:45:02;7.28;;;6.78;;
46284;SDS011;32018;59.182;18.148;2022-12-20T07:47:27;7.13;;;6.53;;
46284;SDS011;32018;59.182;18.148;2022-12-20T07:49:53;6.05;;;5.47;;
46284;SDS011;32018;59.182;18.148;2022-12-20T07:52:18;6.30;;;5.80;;
46284;SDS011;32018;59.182;18.148;2022-12-20T07:54:46;6.05;;;5.63;;
46284;SDS011;32018;59.182;18.148;2022-12-20T07:57:15;5.95;;;5.45;;
46284;SDS011;32018;59.182;18.148;2022-12-20T07:59:45;5.72;;;5.32;;
46284;SDS011;32018;59.182;18.148;2022-12-20T08:02:12;4.85;;;4.55;;
46284;SDS011;32018;59.182;18.148;2022-12-20T08:04:39;5.68;;;5.28;;
46284;SDS011;32018;59.182;18.148;2022-12-20T08:07:05;4.97;;;4.60;;
46284;SDS011;32018;59.182;18.148;2022-12-20T08:09:35;4.93;;;4.63;;
46284;SDS011;32018;59.182;18.148;2022-12-20T08:12:01;5.50;;;5.10;;
46284;SDS011;32018;59.182;18.148;2022-12-20T08:14:26;4.90;;;4.50;;
46284;SDS011;32018;59.182;18.148;2022-12-20T08:16:52;6.07;;;5.60;;
46284;SDS011;32018;59.182;18.148;2022-12-20T08:19:17;4.70;;;4.30;;
46284;SDS011;32018;59.182;18.148;2022-12-20T14:02:44;16.60;;;15.18;;
46284;SDS011;32018;59.182;18.148;2022-12-20T14:05:18;16.60;;;15.40;;
46284;SDS011;32018;59.182;18.148;2022-12-20T14:07:50;15.90;;;14.50;;
46284;SDS011;32018;59.182;18.148;2022-12-20T14:10:20;13.38;;;12.38;;
46284;SDS011;32018;59.182;18.148;2022-12-20T14:15:22;11.00;;;10.20;;
46284;SDS011;32018;59.182;18.148;2022-12-20T14:17:48;9.35;;;8.55;;
46284;SDS011;32018;59.182;18.148;2022-12-20T14:20:14;10.38;;;9.57;;
46284;SDS011;32018;59.182;18.148;2022-12-20T14:22:49;9.52;;;6.28;;
46284;SDS011;32018;59.182;18.148;2022-12-20T14:25:19;11.93;;;7.63;;
46284;SDS011;32018;59.182;18.148;2022-12-20T14:27:46;7.93;;;7.32;;
46284;SDS011;32018;59.182;18.148;2022-12-20T14:30:25;7.60;;;7.10;;
46284;SDS011;32018;59.182;18.148;2022-12-20T14:32:50;8.77;;;7.97;;
46284;SDS011;32018;59.182;18.148;2022-12-20T14:35:19;8.65;;;7.95;;
46284;SDS011;32018;59.182;18.148;2022-12-20T14:37:51;6.03;;;5.63;;
46284;SDS011;32018;59.182;18.148;2022-12-20T14:40:17;5.85;;;5.45;;
46284;SDS011;32018;59.182;18.148;2022-12-20T14:42:44;8.18;;;7.45;;
46284;SDS011;32018;59.182;18.148;2022-12-20T14:47:45;8.00;;;7.32;;
46284;SDS011;32018;59.182;18.148;2022-12-20T14:50:16;8.27;;;7.20;;
46284;SDS011;32018;59.182;18.148;2022-12-20T14:52:42;8.30;;;6.67;;
46284;SDS011;32018;59.182;18.148;2022-12-20T14:55:10;7.75;;;7.05;;
46284;SDS011;32018;59.182;18.148;2022-12-20T14:57:45;8.68;;;7.95;;
46284;SDS011;32018;59.182;18.148;2022-12-20T15:02:56;7.38;;;6.05;;
46284;SDS011;32018;59.182;18.148;2022-12-20T15:07:48;7.38;;;6.72;;
46284;SDS011;32018;59.182;18.148;2022-12-20T15:10:13;8.10;;;7.30;;
46284;SDS011;32018;59.182;18.148;2022-12-20T15:12:38;8.27;;;7.57;;
46284;SDS011;32018;59.182;18.148;2022-12-20T15:15:04;8.43;;;7.63;;
46284;SDS011;32018;59.182;18.148;2022-12-20T15:17:29;8.20;;;7.50;;
46284;SDS011;32018;59.182;18.148;2022-12-20T15:19:55;8.73;;;7.82;;
46284;SDS011;32018;59.182;18.148;2022-12-20T15:22:20;13.27;;;7.50;;
46284;SDS011;32018;59.182;18.148;2022-12-20T15:24:45;7.28;;;6.57;;
46284;SDS011;32018;59.182;18.148;2022-12-20T15:27:14;13.55;;;8.10;;
46284;SDS011;32018;59.182;18.148;2022-12-20T15:29:39;9.98;;;8.07;;
46284;SDS011;32018;59.182;18.148;2022-12-20T15:32:16;8.43;;;7.50;;
46284;SDS011;32018;59.182;18.148;2022-12-20T15:34:43;9.15;;;7.95;;
46284;SDS011;32018;59.182;18.148;2022-12-20T15:37:09;9.88;;;8.88;;
46284;SDS011;32018;59.182;18.148;2022-12-20T15:39:35;12.40;;;9.18;;
46284;SDS011;32018;59.182;18.148;2022-12-20T15:42:01;13.68;;;12.52;;
46284;SDS011;32018;59.182;18.148;2022-12-20T15:44:28;13.13;;;9.57;;
46284;SDS011;32018;59.182;18.148;2022-12-20T15:46:54;14.68;;;9.65;;
46284;SDS011;32018;59.182;18.148;2022-12-20T15:49:21;16.90;;;9.05;;
46284;SDS011;32018;59.182;18.148;2022-12-20T15:51:47;16.48;;;10.50;;
46284;SDS011;32018;59.182;18.148;2022-12-20T15:54:19;13.10;;;10.82;;
46284;SDS011;32018;59.182;18.148;2022-12-20T15:56:46;9.82;;;8.98;;
46284;SDS011;32018;59.182;18.148;2022-12-20T15:59:12;8.43;;;7.68;;
46284;SDS011;32018;59.182;18.148;2022-12-20T16:01:37;8.43;;;6.63;;
46284;SDS011;32018;59.182;18.148;2022-12-20T16:04:04;7.07;;;6.40;;
46284;SDS011;32018;59.182;18.148;2022-12-20T16:06:29;10.18;;;9.27;;
46284;SDS011;32018;59.182;18.148;2022-12-20T16:08:55;7.50;;;6.85;;
46284;SDS011;32018;59.182;18.148;2022-12-20T16:11:21;6.90;;;6.20;;
46284;SDS011;32018;59.182;18.148;2022-12-20T16:13:47;7.72;;;7.00;;
46284;SDS011;32018;59.182;18.148;2022-12-20T16:16:15;8.68;;;7.70;;
46284;SDS011;32018;59.182;18.148;2022-12-20T16:18:40;9.48;;;8.70;;
46284;SDS011;32018;59.182;18.148;2022-12-20T16:21:09;6.88;;;6.38;;
46284;SDS011;32018;59.182;18.148;2022-12-20T16:23:35;8.45;;;7.75;;
46284;SDS011;32018;59.182;18.148;2022-12-20T16:26:00;9.95;;;6.60;;
46284;SDS011;32018;59.182;18.148;2022-12-20T16:28:26;32.22;;;20.67;;
46284;SDS011;32018;59.182;18.148;2022-12-20T16:30:51;29.48;;;13.85;;
46284;SDS011;32018;59.182;18.148;2022-12-20T16:33:17;17.88;;;14.82;;
46284;SDS011;32018;59.182;18.148;2022-12-20T16:35:43;21.10;;;12.50;;
46284;SDS011;32018;59.182;18.148;2022-12-20T16:38:08;37.45;;;12.15;;
46284;SDS011;32018;59.182;18.148;2022-12-20T16:40:33;30.52;;;9.40;;
46284;SDS011;32018;59.182;18.148;2022-12-20T16:42:59;39.17;;;9.70;;
46284;SDS011;32018;59.182;18.148;2022-12-20T16:45:25;30.65;;;9.98;;
46284;SDS011;32018;59.182;18.148;2022-12-20T16:47:51;33.08;;;9.25;;
46284;SDS011;32018;59.182;18.148;2022-12-20T16:50:17;26.42;;;8.80;;
46284;SDS011;32018;59.182;18.148;2022-12-20T16:52:43;42.55;;;9.10;;
46284;SDS011;32018;59.182;18.148;2022-12-20T16:55:11;25.10;;;8.30;;
46284;SDS011;32018;59.182;18.148;2022-12-20T16:57:37;58.10;;;8.77;;
46284;SDS011;32018;59.182;18.148;2022-12-20T17:00:03;5.38;;;4.97;;
46284;SDS011;32018;59.182;18.148;2022-12-20T17:02:30;21.67;;;7.60;;
46284;SDS011;32018;59.182;18.148;2022-12-20T17:04:56;65.15;;;8.38;;
46284;SDS011;32018;59.182;18.148;2022-12-20T17:07:22;30.73;;;8.25;;
46284;SDS011;32018;59.182;18.148;2022-12-20T17:09:47;49.60;;;8.35;;
46284;SDS011;32018;59.182;18.148;2022-12-20T17:12:16;22.83;;;9.87;;
46284;SDS011;32018;59.182;18.148;2022-12-20T17:14:42;30.52;;;9.05;;
46284;SDS011;32018;59.182;18.148;2022-12-20T17:17:07;29.17;;;8.15;;
46284;SDS011;32018;59.182;18.148;2022-12-20T17:19:32;23.05;;;9.20;;
46284;SDS011;32018;59.182;18.148;2022-12-20T17:21:58;56.00;;;8.88;;
46284;SDS011;32018;59.182;18.148;2022-12-20T17:24:24;49.45;;;9.23;;
46284;SDS011;32018;59.182;18.148;2022-12-20T17:26:49;23.55;;;9.40;;
46284;SDS011;32018;59.182;18.148;2022-12-20T17:29:15;26.65;;;9.18;;
46284;SDS011;32018;59.182;18.148;2022-12-20T17:31:42;32.17;;;8.55;;
46284;SDS011;32018;59.182;18.148;2022-12-20T17:34:18;16.38;;;9.23;;
46284;SDS011;32018;59.182;18.148;2022-12-20T17:36:44;20.88;;;8.85;;
46284;SDS011;32018;59.182;18.148;2022-12-20T17:39:09;40.08;;;11.02;;
46284;SDS011;32018;59.182;18.148;2022-12-20T17:41:35;39.20;;;9.27;;
46284;SDS011;32018;59.182;18.148;2022-12-20T17:44:01;24.20;;;13.30;;
46284;SDS011;32018;59.182;18.148;2022-12-20T17:46:26;19.30;;;7.82;;
46284;SDS011;32018;59.182;18.148;2022-12-20T17:48:52;43.70;;;10.90;;
46284;SDS011;32018;59.182;18.148;2022-12-20T17:51:18;51.85;;;10.52;;
46284;SDS011;32018;59.182;18.148;2022-12-20T17:53:44;72.40;;;10.32;;
46284;SDS011;32018;59.182;18.148;2022-12-20T17:56:11;104.75;;;10.82;;
46284;SDS011;32018;59.182;18.148;2022-12-20T17:58:37;95.85;;;10.38;;
46284;SDS011;32018;59.182;18.148;2022-12-20T18:01:02;66.73;;;10.00;;
46284;SDS011;32018;59.182;18.148;2022-12-20T18:03:27;59.05;;;10.30;;
46284;SDS011;32018;59.182;18.148;2022-12-20T18:05:53;37.35;;;9.65;;
46284;SDS011;32018;59.182;18.148;2022-12-20T18:08:19;85.07;;;9.57;;
46284;SDS011;32018;59.182;18.148;2022-12-20T18:10:44;57.75;;;9.23;;
46284;SDS011;32018;59.182;18.148;2022-12-20T18:13:09;86.00;;;11.65;;
46284;SDS011;32018;59.182;18.148;2022-12-20T18:15:36;86.57;;;10.20;;
46284;SDS011;32018;59.182;18.148;2022-12-20T18:18:02;47.38;;;9.68;;
46284;SDS011;32018;59.182;18.148;2022-12-20T18:20:27;58.65;;;10.00;;
46284;SDS011;32018;59.182;18.148;2022-12-20T18:22:52;87.18;;;10.30;;
46284;SDS011;32018;59.182;18.148;2022-12-20T18:25:18;45.33;;;8.50;;
46284;SDS011;32018;59.182;18.148;2022-12-20T18:27:43;56.90;;;8.75;;
46284;SDS011;32018;59.182;18.148;2022-12-20T18:30:09;58.55;;;8.77;;
46284;SDS011;32018;59.182;18.148;2022-12-20T18:32:34;73.93;;;10.07;;
46284;SDS011;32018;59.182;18.148;2022-12-20T18:35:00;40.60;;;9.45;;
46284;SDS011;32018;59.182;18.148;2022-12-20T18:37:25;57.65;;;9.38;;
46284;SDS011;32018;59.182;18.148;2022-12-20T18:39:51;36.53;;;9.63;;
46284;SDS011;32018;59.182;18.148;2022-12-20T18:42:16;26.60;;;9.82;;
46284;SDS011;32018;59.182;18.148;2022-12-20T18:44:41;30.23;;;12.27;;
46284;SDS011;32018;59.182;18.148;2022-12-20T18:47:06;34.83;;;11.82;;
46284;SDS011;32018;59.182;18.148;2022-12-20T18:49:32;26.77;;;12.15;;
46284;SDS011;32018;59.182;18.148;2022-12-20T18:51:57;33.75;;;11.48;;
46284;SDS011;32018;59.182;18.148;2022-12-20T18:54:23;22.83;;;10.63;;
46284;SDS011;32018;59.182;18.148;2022-12-20T18:56:49;12.98;;;10.55;;
46284;SDS011;32018;59.182;18.148;2022-12-20T18:59:14;19.48;;;10.45;;
46284;SDS011;32018;59.182;18.148;2022-12-20T19:01:40;15.65;;;10.30;;
46284;SDS011;32018;59.182;18.148;2022-12-20T19:04:06;16.48;;;10.45;;
46284;SDS011;32018;59.182;18.148;2022-12-20T19:06:31;12.48;;;10.65;;
46284;SDS011;32018;59.182;18.148;2022-12-20T19:09:00;13.85;;;8.95;;
46284;SDS011;32018;59.182;18.148;2022-12-20T19:11:25;16.45;;;10.00;;
46284;SDS011;32018;59.182;18.148;2022-12-20T19:13:51;11.90;;;9.75;;
46284;SDS011;32018;59.182;18.148;2022-12-20T19:16:17;17.50;;;9.55;;
46284;SDS011;32018;59.182;18.148;2022-12-20T19:18:43;10.98;;;9.57;;
46284;SDS011;32018;59.182;18.148;2022-12-20T19:21:10;11.48;;;10.05;;
46284;SDS011;32018;59.182;18.148;2022-12-20T19:23:36;11.50;;;10.30;;
46284;SDS011;32018;59.182;18.148;2022-12-20T19:26:02;12.55;;;10.65;;
46284;SDS011;32018;59.182;18.148;2022-12-20T19:28:28;17.98;;;11.13;;
46284;SDS011;32018;59.182;18.148;2022-12-20T19:30:54;20.17;;;15.43;;
46284;SDS011;32018;59.182;18.148;2022-12-20T19:33:19;12.73;;;11.52;;
46284;SDS011;32018;59.182;18.148;2022-12-20T19:35:45;11.40;;;9.90;;
46284;SDS011;32018;59.182;18.148;2022-12-20T19:38:10;14.80;;;11.05;;
46284;SDS011;32018;59.182;18.148;2022-12-20T19:40:35;14.27;;;11.18;;
46284;SDS011;32018;59.182;18.148;2022-12-20T19:43:01;11.05;;;9.80;;
46284;SDS011;32018;59.182;18.148;2022-12-20T19:45:26;9.98;;;8.73;;
46284;SDS011;32018;59.182;18.148;2022-12-20T19:47:51;13.37;;;10.33;;
46284;SDS011;32018;59.182;18.148;2022-12-20T19:50:18;12.00;;;10.45;;
46284;SDS011;32018;59.182;18.148;2022-12-20T19:52:43;14.63;;;10.48;;
46284;SDS011;32018;59.182;18.148;2022-12-20T19:55:09;11.35;;;10.18;;
46284;SDS011;32018;59.182;18.148;2022-12-20T19:57:34;13.13;;;11.82;;
46284;SDS011;32018;59.182;18.148;2022-12-20T19:59:59;11.40;;;10.20;;
46284;SDS011;32018;59.182;18.148;2022-12-20T20:02:24;13.38;;;9.43;;
46284;SDS011;32018;59.182;18.148;2022-12-20T20:04:50;12.27;;;10.95;;
46284;SDS011;32018;59.182;18.148;2022-12-20T20:07:15;12.02;;;10.82;;
46284;SDS011;32018;59.182;18.148;2022-12-20T20:09:40;11.35;;;10.07;;
46284;SDS011;32018;59.182;18.148;2022-12-20T20:12:06;10.90;;;9.90;;
46284;SDS011;32018;59.182;18.148;2022-12-20T20:14:31;11.35;;;9.68;;
46284;SDS011;32018;59.182;18.148;2022-12-20T20:16:56;11.18;;;10.07;;
46284;SDS011;32018;59.182;18.148;2022-12-20T20:19:22;12.30;;;11.20;;
46284;SDS011;32018;59.182;18.148;2022-12-20T20:21:47;10.85;;;9.85;;
46284;SDS011;32018;59.182;18.148;2022-12-20T20:24:13;10.77;;;9.48;;
46284;SDS011;32018;59.182;18.148;2022-12-20T20:26:38;9.85;;;8.95;;
46284;SDS011;32018;59.182;18.148;2022-12-20T20:29:03;9.20;;;8.30;;